createdAt,value
2019-05-29T00:01:56.885Z,58.39
2019-05-29T00:04:23.915Z,58.44
2019-05-29T00:06:50.901Z,58.49
2019-05-29T00:09:23.637Z,58.55
2019-05-29T00:11:50.671Z,58.53
2019-05-29T00:14:25.736Z,58.51
2019-05-29T00:16:46.623Z,58.51
2019-05-29T00:19:14.574Z,58.52
2019-05-29T00:21:41.600Z,58.48
2019-05-29T00:24:08.633Z,58.57
2019-05-29T00:26:35.652Z,58.61
2019-05-29T00:29:02.635Z,58.63
2019-05-29T00:31:32.663Z,58.65
2019-05-29T00:34:03.723Z,58.70
2019-05-29T00:36:30.725Z,58.71
2019-05-29T00:38:57.779Z,58.78
2019-05-29T00:41:29.764Z,58.84
2019-05-29T00:44:01.081Z,58.87
2019-05-29T00:46:28.086Z,58.92
2019-05-29T00:48:55.105Z,58.93
2019-05-29T00:51:23.402Z,58.96
2019-05-29T00:53:54.025Z,58.91
2019-05-29T00:56:21.060Z,58.98
2019-05-29T00:58:48.058Z,58.98
2019-05-29T01:01:20.190Z,58.96
2019-05-29T01:03:47.279Z,59.07
2019-05-29T01:06:14.363Z,59.12
2019-05-29T01:08:41.335Z,59.24
2019-05-29T01:11:08.343Z,59.32
2019-05-29T01:13:41.312Z,59.34
2019-05-29T01:16:08.302Z,59.33
2019-05-29T01:18:35.350Z,59.46
2019-05-29T01:21:06.360Z,59.49
2019-05-29T01:23:33.364Z,59.49
2019-05-29T01:26:00.396Z,59.59
2019-05-29T01:28:27.380Z,59.59
2019-05-29T01:30:56.615Z,59.56
2019-05-29T01:33:25.020Z,59.56
2019-05-29T01:35:52.130Z,59.52
2019-05-29T01:38:21.735Z,59.67
2019-05-29T01:40:48.769Z,59.67
2019-05-29T01:43:17.550Z,59.54
2019-05-29T01:45:45.764Z,59.70
2019-05-29T01:48:19.585Z,59.66
2019-05-29T01:50:46.738Z,59.72
2019-05-29T01:53:13.756Z,59.72
2019-05-29T01:55:40.797Z,59.82
2019-05-29T01:58:07.856Z,59.88
2019-05-29T02:00:34.853Z,59.92
2019-05-29T02:03:01.892Z,60.01
2019-05-29T02:05:28.984Z,60.07
2019-05-29T02:07:56.497Z,60.13
2019-05-29T02:10:29.043Z,60.26
2019-05-29T02:12:56.038Z,60.31
2019-05-29T02:15:31.690Z,60.57
2019-05-29T02:17:52.085Z,60.58
2019-05-29T02:20:21.159Z,60.79
2019-05-29T02:22:48.298Z,61.03
2019-05-29T02:25:18.135Z,60.98
2019-05-29T02:27:49.385Z,60.87
2019-05-29T02:30:18.697Z,60.88
2019-05-29T02:32:46.092Z,60.88
2019-05-29T02:35:14.800Z,60.92
2019-05-29T02:37:41.888Z,60.92
2019-05-29T02:40:08.881Z,60.89
2019-05-29T02:42:38.922Z,60.94
2019-05-29T02:45:06.598Z,60.99
2019-05-29T02:47:33.630Z,61.00
2019-05-29T02:50:00.631Z,61.34
2019-05-29T02:52:28.672Z,61.34
2019-05-29T02:54:57.793Z,61.32
2019-05-29T02:57:24.801Z,61.42
2019-05-29T02:59:51.827Z,61.47
2019-05-29T03:02:23.433Z,61.56
2019-05-29T03:04:52.237Z,61.53
2019-05-29T03:07:19.334Z,61.53
2019-05-29T03:09:46.343Z,61.59
2019-05-29T03:12:13.434Z,61.55
2019-05-29T03:14:40.418Z,61.53
2019-05-29T03:17:08.945Z,61.50
2019-05-29T03:19:37.865Z,61.52
2019-05-29T03:22:04.911Z,61.51
2019-05-29T03:24:32.966Z,61.51
2019-05-29T03:27:01.699Z,61.74
2019-05-29T03:29:30.012Z,61.74
2019-05-29T03:31:57.552Z,61.75
2019-05-29T03:34:37.275Z,61.98
2019-05-29T03:37:02.823Z,62.02
2019-05-29T03:39:30.462Z,62.02
2019-05-29T03:41:57.564Z,62.03
2019-05-29T03:44:28.573Z,62.05
2019-05-29T03:46:55.644Z,62.21
2019-05-29T03:49:26.720Z,62.14
2019-05-29T03:51:53.985Z,62.02
2019-05-29T03:54:20.959Z,62.25
2019-05-29T03:56:47.952Z,62.25
2019-05-29T03:59:14.969Z,62.35
2019-05-29T04:01:41.966Z,62.38
2019-05-29T04:04:08.979Z,62.39
2019-05-29T04:06:39.641Z,62.45
2019-05-29T04:09:08.755Z,62.45
2019-05-29T04:11:38.368Z,62.48
2019-05-29T04:14:05.524Z,62.73
2019-05-29T04:16:52.735Z,63.07
2019-05-29T04:19:10.016Z,63.07
2019-05-29T04:21:38.712Z,63.12
2019-05-29T04:24:06.067Z,62.94
2019-05-29T04:26:39.089Z,62.79
2019-05-29T04:29:07.574Z,62.58
2019-05-29T04:31:36.348Z,62.36
2019-05-29T04:34:03.819Z,62.05
2019-05-29T04:36:32.823Z,61.64
2019-05-29T04:38:59.729Z,61.42
2019-05-29T04:41:28.793Z,61.14
2019-05-29T04:43:57.192Z,60.84
2019-05-29T04:46:27.664Z,60.45
2019-05-29T04:48:54.690Z,60.04
2019-05-29T04:51:21.681Z,59.53
2019-05-29T04:53:50.379Z,59.03
2019-05-29T04:56:17.442Z,58.52
2019-05-29T04:58:44.438Z,58.26
2019-05-29T05:01:17.382Z,57.87
2019-05-29T05:03:44.634Z,57.33
2019-05-29T05:06:11.683Z,56.99
2019-05-29T05:08:39.712Z,56.62
2019-05-29T05:11:09.028Z,56.16
2019-05-29T05:13:38.328Z,55.83
2019-05-29T05:16:05.304Z,55.52
2019-05-29T05:18:32.346Z,55.07
2019-05-29T05:21:01.721Z,54.59
2019-05-29T05:23:30.030Z,54.16
2019-05-29T05:25:57.200Z,53.81
2019-05-29T05:28:26.299Z,53.23
2019-05-29T05:30:53.286Z,52.74
2019-05-29T05:33:20.279Z,52.39
2019-05-29T05:35:48.590Z,52.37
2019-05-29T05:38:15.570Z,52.47
2019-05-29T05:40:43.344Z,52.52
2019-05-29T05:43:23.172Z,52.47
2019-05-29T05:45:42.098Z,52.23
2019-05-29T05:48:13.127Z,52.10
2019-05-29T05:50:42.867Z,51.94
2019-05-29T05:53:09.879Z,51.85
2019-05-29T05:55:37.698Z,51.89
2019-05-29T05:58:04.799Z,51.78
2019-05-29T06:00:36.015Z,51.67
2019-05-29T06:03:03.249Z,51.64
2019-05-29T06:05:31.896Z,51.64
2019-05-29T06:07:59.127Z,51.61
2019-05-29T06:10:26.160Z,51.42
2019-05-29T06:12:53.162Z,51.10
2019-05-29T06:15:20.259Z,51.10
2019-05-29T06:18:05.034Z,51.10
2019-05-29T06:20:19.144Z,51.04
2019-05-29T06:22:46.212Z,51.11
2019-05-29T06:25:14.721Z,50.74
2019-05-29T06:27:41.740Z,50.36
2019-05-29T06:30:09.473Z,49.90
2019-05-29T06:32:39.484Z,49.44
2019-05-29T06:35:06.919Z,49.27
2019-05-29T06:37:33.929Z,48.43
2019-05-29T06:40:00.963Z,48.67
2019-05-29T06:42:28.089Z,47.71
2019-05-29T06:44:55.179Z,48.10
2019-05-29T06:47:22.283Z,47.93
2019-05-29T06:49:49.358Z,47.18
2019-05-29T06:52:16.425Z,46.16
2019-05-29T06:54:44.131Z,45.56
2019-05-29T06:57:11.335Z,45.45
2019-05-29T06:59:38.388Z,45.26
2019-05-29T07:02:05.740Z,45.02
2019-05-29T07:04:32.713Z,44.59
2019-05-29T07:06:59.751Z,44.27
2019-05-29T07:09:26.769Z,44.45
2019-05-29T07:11:53.766Z,43.96
2019-05-29T07:14:20.832Z,43.46
2019-05-29T07:16:56.309Z,43.63
2019-05-29T07:19:29.639Z,43.28
2019-05-29T07:21:50.380Z,42.21
2019-05-29T07:24:17.420Z,43.21
2019-05-29T07:26:45.485Z,43.74
2019-05-29T07:29:16.933Z,43.74
2019-05-29T07:31:45.766Z,43.73
2019-05-29T07:34:14.091Z,44.08
2019-05-29T07:36:44.004Z,43.81
2019-05-29T07:39:11.032Z,43.54
2019-05-29T07:41:39.685Z,43.79
2019-05-29T07:44:08.195Z,43.96
2019-05-29T07:46:35.152Z,43.41
2019-05-29T07:49:02.199Z,43.66
2019-05-29T07:51:29.314Z,43.95
2019-05-29T07:53:58.031Z,44.30
2019-05-29T07:56:25.054Z,44.88
2019-05-29T07:59:01.648Z,44.42
2019-05-29T08:01:21.152Z,44.45
2019-05-29T08:03:49.664Z,44.86
2019-05-29T08:06:16.864Z,44.53
2019-05-29T08:08:43.895Z,44.24
2019-05-29T08:11:10.929Z,44.00
2019-05-29T08:13:37.953Z,43.68
2019-05-29T08:16:04.978Z,43.78
2019-05-29T08:18:32.078Z,43.57
2019-05-29T08:20:59.158Z,44.28
2019-05-29T08:23:26.169Z,45.31
2019-05-29T08:25:53.202Z,46.00
2019-05-29T08:28:22.345Z,45.87
2019-05-29T08:30:55.528Z,46.35
2019-05-29T08:33:18.295Z,46.39
2019-05-29T08:35:47.201Z,46.68
2019-05-29T08:38:14.289Z,46.86
2019-05-29T08:40:41.316Z,46.74
2019-05-29T08:43:08.375Z,46.35
2019-05-29T08:45:35.398Z,46.58
2019-05-29T08:48:02.411Z,46.62
2019-05-29T08:50:31.108Z,46.58
2019-05-29T08:52:58.138Z,46.20
2019-05-29T08:55:25.163Z,46.05
2019-05-29T08:57:52.534Z,46.20
2019-05-29T09:00:22.064Z,45.54
2019-05-29T09:02:49.534Z,46.46
2019-05-29T09:05:17.865Z,45.56
2019-05-29T09:07:46.375Z,45.63
2019-05-29T09:10:15.158Z,45.35
2019-05-29T09:12:50.029Z,45.57
2019-05-29T09:15:20.571Z,45.45
2019-05-29T09:17:43.612Z,44.02
2019-05-29T09:20:26.050Z,43.94
2019-05-29T09:22:40.313Z,43.59
2019-05-29T09:25:07.683Z,42.79
2019-05-29T09:27:34.703Z,42.70
2019-05-29T09:30:01.720Z,41.77
2019-05-29T09:32:49.570Z,40.97
2019-05-29T09:35:02.623Z,40.21
2019-05-29T09:37:29.712Z,40.17
2019-05-29T09:39:56.718Z,39.90
2019-05-29T09:42:25.126Z,40.17
2019-05-29T09:44:52.551Z,39.53
2019-05-29T09:47:20.422Z,39.08
2019-05-29T09:49:48.503Z,39.49
2019-05-29T09:52:15.597Z,39.23
2019-05-29T09:54:45.327Z,39.52
2019-05-29T09:57:15.359Z,39.76
2019-05-29T09:59:41.324Z,39.81
2019-05-29T10:02:09.225Z,38.90
2019-05-29T10:04:36.546Z,37.93
2019-05-29T10:07:04.847Z,38.48
2019-05-29T10:09:32.134Z,36.93
2019-05-29T10:12:03.452Z,36.71
2019-05-29T10:14:29.472Z,37.59
2019-05-29T10:17:01.417Z,37.56
2019-05-29T10:19:25.450Z,37.45
2019-05-29T10:21:52.450Z,37.50
2019-05-29T10:24:19.492Z,37.80
2019-05-29T10:26:46.552Z,36.20
2019-05-29T10:29:13.619Z,36.88
2019-05-29T10:31:42.117Z,35.51
2019-05-29T10:34:09.574Z,36.35
2019-05-29T10:36:36.635Z,36.22
2019-05-29T10:39:12.723Z,35.94
2019-05-29T10:41:42.679Z,35.69
2019-05-29T10:44:12.876Z,35.54
2019-05-29T10:46:44.949Z,34.97
2019-05-29T10:49:11.371Z,35.62
2019-05-29T10:51:54.669Z,34.77
2019-05-29T10:54:09.879Z,36.31
2019-05-29T10:56:38.132Z,33.85
2019-05-29T10:59:07.217Z,34.76
2019-05-29T11:01:34.281Z,34.13
2019-05-29T11:04:01.364Z,34.42
2019-05-29T11:06:28.512Z,34.69
2019-05-29T11:08:56.290Z,35.21
2019-05-29T11:11:23.437Z,34.81
2019-05-29T11:13:57.063Z,34.76
2019-05-29T11:16:23.591Z,35.79
2019-05-29T11:18:51.359Z,37.37
2019-05-29T11:21:18.489Z,36.46
2019-05-29T11:23:49.755Z,35.08
2019-05-29T11:26:17.085Z,35.24
2019-05-29T11:28:44.167Z,34.90
2019-05-29T11:31:15.482Z,34.15
2019-05-29T11:33:42.533Z,33.89
2019-05-29T11:36:14.255Z,35.73
2019-05-29T11:38:41.409Z,36.18
2019-05-29T11:41:25.199Z,37.05
2019-05-29T11:43:40.949Z,36.11
2019-05-29T11:46:10.574Z,35.54
2019-05-29T11:48:37.647Z,35.25
2019-05-29T11:51:04.681Z,35.16
2019-05-29T11:53:31.801Z,35.62
2019-05-29T11:55:59.939Z,35.41
2019-05-29T11:58:31.249Z,34.47
2019-05-29T12:00:57.174Z,35.67
2019-05-29T12:03:24.447Z,34.67
2019-05-29T12:05:51.679Z,35.28
2019-05-29T12:08:26.528Z,35.31
2019-05-29T12:10:53.555Z,34.48
2019-05-29T12:13:20.674Z,35.32
2019-05-29T12:15:47.813Z,35.65
2019-05-29T12:18:23.427Z,35.74
2019-05-29T12:20:43.939Z,34.55
2019-05-29T12:23:24.782Z,33.18
2019-05-29T12:25:42.311Z,33.93
2019-05-29T12:28:09.352Z,35.18
2019-05-29T12:30:36.608Z,35.05
2019-05-29T12:33:05.009Z,34.91
2019-05-29T12:35:32.489Z,33.36
2019-05-29T12:37:59.668Z,34.23
2019-05-29T12:40:29.214Z,34.20
2019-05-29T12:43:00.272Z,34.71
2019-05-29T12:45:28.530Z,35.03
2019-05-29T12:47:56.517Z,34.17
2019-05-29T12:50:27.444Z,34.47
2019-05-29T12:52:55.709Z,33.85
2019-05-29T12:55:25.593Z,34.16
2019-05-29T12:57:55.910Z,33.88
2019-05-29T13:00:27.578Z,34.02
2019-05-29T13:02:56.256Z,33.89
2019-05-29T13:05:25.591Z,34.01
2019-05-29T13:07:54.739Z,32.49
2019-05-29T13:10:31.099Z,32.75
2019-05-29T13:13:02.372Z,32.98
2019-05-29T13:15:25.551Z,33.46
2019-05-29T13:17:57.169Z,34.74
2019-05-29T13:20:22.488Z,34.79
2019-05-29T13:22:49.702Z,34.03
2019-05-29T13:25:23.038Z,31.82
2019-05-29T13:27:52.812Z,32.89
2019-05-29T13:30:23.880Z,33.07
2019-05-29T13:32:50.958Z,34.72
2019-05-29T13:35:21.935Z,32.49
2019-05-29T13:37:47.333Z,33.22
2019-05-29T13:40:14.670Z,34.59
2019-05-29T13:42:41.764Z,33.91
2019-05-29T13:45:17.969Z,33.70
2019-05-29T13:47:40.295Z,32.38
2019-05-29T13:50:12.125Z,34.36
2019-05-29T13:52:39.293Z,32.26
2019-05-29T13:55:07.710Z,32.51
2019-05-29T13:57:39.991Z,31.98
2019-05-29T14:00:31.663Z,32.22
2019-05-29T14:02:41.270Z,32.52
2019-05-29T14:05:10.527Z,32.19
2019-05-29T14:07:37.700Z,31.65
2019-05-29T14:10:06.463Z,32.77
2019-05-29T14:12:37.733Z,31.71
2019-05-29T14:15:06.429Z,32.25
2019-05-29T14:17:40.456Z,32.93
2019-05-29T14:20:09.101Z,32.35
2019-05-29T14:22:36.136Z,33.04
2019-05-29T14:25:03.789Z,33.28
2019-05-29T14:27:30.829Z,32.67
2019-05-29T14:29:57.894Z,32.74
2019-05-29T14:32:28.366Z,31.11
2019-05-29T14:34:55.917Z,32.18
2019-05-29T14:37:22.979Z,33.11
2019-05-29T14:39:50.052Z,32.22
2019-05-29T14:42:18.886Z,32.37
2019-05-29T14:44:48.981Z,31.83
2019-05-29T14:47:16.089Z,33.06
2019-05-29T14:49:43.399Z,31.98
2019-05-29T14:52:11.646Z,31.61
2019-05-29T14:54:44.011Z,31.47
2019-05-29T14:57:22.558Z,31.31
2019-05-29T14:59:40.027Z,31.72
2019-05-29T15:02:17.067Z,31.40
2019-05-29T15:04:36.120Z,31.69
2019-05-29T15:07:03.750Z,31.60
2019-05-29T15:09:31.098Z,31.49
2019-05-29T15:11:58.191Z,31.67
2019-05-29T15:14:31.025Z,31.72
2019-05-29T15:17:00.986Z,29.87
2019-05-29T15:19:30.299Z,31.29
2019-05-29T15:21:57.373Z,31.71
2019-05-29T15:24:24.411Z,31.39
2019-05-29T15:26:51.465Z,31.58
2019-05-29T15:29:18.626Z,31.60
2019-05-29T15:31:45.629Z,32.39
2019-05-29T15:34:16.246Z,32.74
2019-05-29T15:36:43.603Z,33.15
2019-05-29T15:39:10.954Z,32.32
2019-05-29T15:41:38.009Z,32.41
2019-05-29T15:44:05.092Z,31.81
2019-05-29T15:46:36.582Z,31.35
2019-05-29T15:49:06.787Z,31.64
2019-05-29T15:51:36.172Z,30.92
2019-05-29T15:54:03.271Z,31.07
2019-05-29T15:56:36.256Z,31.43
2019-05-29T15:59:05.555Z,30.66
2019-05-29T16:01:32.595Z,31.27
2019-05-29T16:03:59.727Z,31.29
2019-05-29T16:06:26.765Z,31.21
2019-05-29T16:08:58.422Z,31.42
2019-05-29T16:11:25.860Z,31.51
2019-05-29T16:13:58.821Z,31.45
2019-05-29T16:16:25.850Z,32.07
2019-05-29T16:18:52.909Z,31.97
2019-05-29T16:21:19.941Z,32.51
2019-05-29T16:23:46.988Z,32.48
2019-05-29T16:26:15.144Z,34.44
2019-05-29T16:28:42.218Z,32.83
2019-05-29T16:31:10.586Z,33.57
2019-05-29T16:33:37.757Z,33.65
2019-05-29T16:36:04.833Z,34.34
2019-05-29T16:38:33.738Z,33.75
2019-05-29T16:41:00.759Z,33.19
2019-05-29T16:43:27.790Z,34.54
2019-05-29T16:45:57.838Z,34.99
2019-05-29T16:48:24.856Z,35.77
2019-05-29T16:50:51.892Z,35.30
2019-05-29T16:53:18.992Z,34.23
2019-05-29T16:55:53.951Z,33.50
2019-05-29T16:58:15.043Z,34.57
2019-05-29T17:00:42.042Z,35.21
2019-05-29T17:03:09.110Z,34.67
2019-05-29T17:05:36.138Z,35.24
2019-05-29T17:08:03.599Z,35.67
2019-05-29T17:10:35.144Z,36.70
2019-05-29T17:13:02.560Z,36.08
2019-05-29T17:15:29.786Z,35.74
2019-05-29T17:17:56.883Z,36.06
2019-05-29T17:20:38.234Z,36.33
2019-05-29T17:23:05.277Z,36.35
2019-05-29T17:25:32.323Z,37.16
2019-05-29T17:27:59.438Z,37.94
2019-05-29T17:30:29.910Z,38.23
2019-05-29T17:32:56.959Z,38.46
2019-05-29T17:35:25.272Z,38.68
2019-05-29T17:37:53.634Z,38.91
2019-05-29T17:40:21.477Z,39.27
2019-05-29T17:42:48.661Z,38.94
2019-05-29T17:45:19.522Z,38.36
2019-05-29T17:47:46.522Z,38.13
2019-05-29T17:50:19.068Z,38.01
2019-05-29T17:52:44.615Z,38.15
2019-05-29T17:55:11.954Z,38.41
2019-05-29T17:57:42.177Z,38.45
2019-05-29T18:00:11.061Z,38.40
2019-05-29T18:02:51.384Z,38.95
2019-05-29T18:05:07.236Z,38.50
2019-05-29T18:07:34.326Z,38.44
2019-05-29T18:10:01.434Z,38.16
2019-05-29T18:12:29.604Z,38.97
2019-05-29T18:14:56.671Z,39.70
2019-05-29T18:17:23.782Z,40.47
2019-05-29T18:19:50.834Z,40.73
2019-05-29T18:22:18.014Z,40.45
2019-05-29T18:24:45.098Z,40.94
2019-05-29T18:27:12.275Z,41.26
2019-05-29T18:29:39.287Z,41.38
2019-05-29T18:32:06.423Z,41.83
2019-05-29T18:34:33.455Z,41.96
2019-05-29T18:37:00.743Z,42.13
2019-05-29T18:39:28.436Z,42.24
2019-05-29T18:41:55.701Z,42.35
2019-05-29T18:44:22.887Z,42.37
2019-05-29T18:46:49.987Z,42.73
2019-05-29T18:49:17.025Z,42.87
2019-05-29T18:51:44.055Z,42.84
2019-05-29T18:54:11.146Z,42.75
2019-05-29T18:56:38.252Z,42.83
2019-05-29T18:59:05.312Z,42.94
2019-05-29T19:01:32.389Z,43.09
2019-05-29T19:03:59.443Z,43.16
2019-05-29T19:06:27.578Z,43.33
2019-05-29T19:08:54.903Z,43.34
2019-05-29T19:11:21.961Z,43.46
2019-05-29T19:13:49.015Z,43.55
2019-05-29T19:16:16.107Z,43.83
2019-05-29T19:18:43.745Z,43.70
2019-05-29T19:21:10.794Z,43.94
2019-05-29T19:23:37.845Z,44.11
2019-05-29T19:26:10.918Z,44.21
2019-05-29T19:28:37.961Z,44.22
2019-05-29T19:31:04.972Z,44.25
2019-05-29T19:33:32.026Z,44.28
2019-05-29T19:35:59.409Z,44.39
2019-05-29T19:38:27.774Z,44.71
2019-05-29T19:40:54.936Z,44.83
2019-05-29T19:43:22.026Z,44.94
2019-05-29T19:45:49.061Z,45.17
2019-05-29T19:48:16.416Z,45.35
2019-05-29T19:50:46.546Z,45.47
2019-05-29T19:53:13.949Z,45.40
2019-05-29T19:55:42.231Z,45.45
2019-05-29T19:58:09.245Z,45.48
2019-05-29T20:00:39.396Z,45.50
2019-05-29T20:03:06.949Z,45.66
2019-05-29T20:05:34.941Z,45.72
2019-05-29T20:08:02.037Z,45.71
2019-05-29T20:10:33.318Z,45.76
2019-05-29T20:13:01.664Z,45.46
2019-05-29T20:15:29.902Z,45.86
2019-05-29T20:17:57.180Z,45.95
2019-05-29T20:20:24.159Z,46.05
2019-05-29T20:22:54.075Z,46.17
2019-05-29T20:25:21.103Z,46.33
2019-05-29T20:28:05.554Z,46.35
2019-05-29T20:30:22.562Z,46.52
2019-05-29T20:32:49.751Z,46.11
2019-05-29T20:35:16.891Z,46.40
2019-05-29T20:37:45.761Z,46.47
2019-05-29T20:40:17.916Z,46.62
2019-05-29T20:42:44.939Z,46.58
2019-05-29T20:45:12.326Z,46.71
2019-05-29T20:47:40.090Z,46.69
2019-05-29T20:50:09.201Z,46.76
2019-05-29T20:52:37.299Z,46.78
2019-05-29T20:55:04.596Z,46.96
2019-05-29T20:57:31.807Z,47.39
2019-05-29T20:59:58.834Z,47.34
2019-05-29T21:02:25.869Z,47.46
2019-05-29T21:04:52.962Z,47.67
2019-05-29T21:07:19.998Z,47.85
2019-05-29T21:09:47.112Z,47.76
2019-05-29T21:12:14.253Z,47.86
2019-05-29T21:14:41.768Z,47.52
2019-05-29T21:17:08.829Z,47.35
2019-05-29T21:19:36.419Z,47.44
2019-05-29T21:22:03.588Z,47.44
2019-05-29T21:24:30.561Z,47.70
2019-05-29T21:26:58.457Z,48.00
2019-05-29T21:29:25.524Z,48.23
2019-05-29T21:31:52.548Z,48.56
2019-05-29T21:34:22.453Z,48.66
2019-05-29T21:36:49.488Z,48.36
2019-05-29T21:39:16.513Z,48.37
2019-05-29T21:41:45.254Z,48.40
2019-05-29T21:44:12.395Z,48.32
2019-05-29T21:46:39.428Z,48.70
2019-05-29T21:49:06.464Z,48.51
2019-05-29T21:51:35.304Z,48.17
2019-05-29T21:54:08.450Z,48.18
2019-05-29T21:56:35.460Z,48.31
2019-05-29T21:59:04.279Z,48.10
2019-05-29T22:01:31.737Z,48.21
2019-05-29T22:03:59.776Z,48.30
2019-05-29T22:06:27.161Z,48.16
2019-05-29T22:08:54.259Z,48.08
2019-05-29T22:11:21.402Z,48.02
2019-05-29T22:13:48.895Z,48.25
2019-05-29T22:16:15.908Z,48.39
2019-05-29T22:18:42.937Z,48.27
2019-05-29T22:21:10.050Z,48.08
2019-05-29T22:23:37.035Z,48.15
2019-05-29T22:26:04.355Z,48.54
2019-05-29T22:28:31.462Z,48.58
2019-05-29T22:31:01.661Z,48.47
2019-05-29T22:33:28.732Z,48.68
2019-05-29T22:35:55.811Z,48.53
2019-05-29T22:38:25.246Z,48.68
2019-05-29T22:40:53.813Z,49.01
2019-05-29T22:43:21.086Z,49.11
2019-05-29T22:45:49.426Z,49.10
2019-05-29T22:48:16.842Z,49.20
2019-05-29T22:50:45.016Z,49.45
2019-05-29T22:53:14.864Z,49.83
2019-05-29T22:55:41.888Z,49.88
2019-05-29T22:58:10.184Z,49.96
2019-05-29T23:00:37.200Z,50.04
2019-05-29T23:03:09.880Z,50.23
2019-05-29T23:05:36.985Z,50.28
2019-05-29T23:08:04.010Z,50.08
2019-05-29T23:10:31.143Z,50.24
2019-05-29T23:13:01.107Z,50.28
2019-05-29T23:15:27.139Z,50.44
2019-05-29T23:17:56.392Z,50.42
2019-05-29T23:20:24.858Z,50.64
2019-05-29T23:22:52.568Z,50.93
2019-05-29T23:25:19.719Z,51.11
2019-05-29T23:27:46.803Z,51.14
2019-05-29T23:30:14.973Z,51.40
2019-05-29T23:32:42.015Z,51.48
2019-05-29T23:35:12.941Z,51.65
2019-05-29T23:37:41.079Z,51.94
2019-05-29T23:40:08.443Z,51.88
2019-05-29T23:42:35.597Z,51.93
2019-05-29T23:45:03.763Z,52.10
2019-05-29T23:47:30.910Z,52.42
2019-05-29T23:49:57.948Z,52.79
2019-05-29T23:52:24.961Z,52.99
2019-05-29T23:54:51.971Z,52.93
2019-05-29T23:57:19.304Z,53.13
2019-05-29T23:59:46.337Z,53.13
